Thursday, November 23, 2017, 1:16 PM EST
Back to Local

KBDL, Bradley International Airport

Location: Windsor Locks, CT, United States Lat: 41.933
Local Time: 1:16 PM EST (18:16 GMT) Lon: -72.683
Time Zone: US/Eastern Elev: 173 ft

Show me the last for .
Show Decoded

2017-11-23 12:51 METAR KBDL 231751Z 28007KT 10SM FEW150 FEW250 06/M08 A3001 RMK AO2 SLP164
                 T00561083 10056 21017 58020 =
2017-11-23 11:51 METAR KBDL 231651Z 26007KT 10SM FEW250 04/M08 A3003 RMK AO2 SLP171 T00441078 =
2017-11-23 10:51 METAR KBDL 231551Z VRB04KT 10SM FEW250 04/M07 A3006 RMK AO2 SLP180 T00391072 =
2017-11-23 09:51 METAR KBDL 231451Z 32004KT 10SM FEW150 FEW250 02/M07 A3007 RMK AO2 SLP184
                 T00221067 51006 =
2017-11-23 08:51 METAR KBDL 231351Z 32009KT 10SM FEW250 01/M06 A3005 RMK AO2 SLP179 T00111061 =
2017-11-23 07:51 METAR KBDL 231251Z 33003KT 10SM SCT250 00/M06 A3007 RMK AO2 SLP184 T00001061 =
2017-11-23 06:51 METAR KBDL 231151Z 34007KT 10SM FEW250 M02/M07 A3005 RMK AO2 SLP178 70016
                 T10171067 10006 21028 51004 =
2017-11-23 05:51 METAR KBDL 231051Z 01005KT 10SM CLR M01/M06 A3004 RMK AO2 SLP173 T10111061 =
2017-11-23 04:51 METAR KBDL 230951Z 30006KT 10SM FEW030 M02/M06 A3006 RMK AO2 SLP180 T10171061 =
2017-11-23 03:51 METAR KBDL 230851Z 28003KT 10SM FEW034 M02/M06 A3004 RMK AO2 SLP174 T10171061
                 53006 =
2017-11-23 02:51 METAR KBDL 230751Z 00000KT 10SM CLR M01/M06 A3002 RMK AO2 SLP168 T10061061 =
2017-11-23 01:51 METAR KBDL 230651Z 33005KT 10SM FEW036 M01/M06 A3003 RMK AO2 SLP172 T10061061 =
2017-11-23 00:51 METAR KBDL 230551Z 34005KT 10SM FEW039 01/M07 A3002 RMK AO2 SLP168 T00061067
                 10039 20006 51013 =
2017-11-22 23:51 METAR KBDL 230451Z 31009KT 10SM FEW039 02/M06 A3002 RMK AO2 PK WND 32027/0400
                 SLP164 T00171061 400830017 =
2017-11-22 22:51 METAR KBDL 230351Z 32009KT 10SM BKN041 03/M04 A3000 RMK AO2 SLP161 T00281044 =
2017-11-22 21:51 METAR KBDL 230251Z 34008G17KT 10SM BKN039 03/M04 A2998 RMK AO2 SLP154 T00331039
                 51013 =
2017-11-22 20:51 METAR KBDL 230151Z 32015G22KT 10SM OVC037 04/M03 A2997 RMK AO2 SLP150 T00391033
                 =
2017-11-22 19:51 METAR KBDL 230051Z 33010KT 10SM BKN037 BKN045 04/M02 A2997 RMK AO2 SLP148
                 T00391022 =
2017-11-22 18:51 METAR KBDL 222351Z 33010G20KT 10SM FEW037 FEW070 04/M02 A2995 RMK AO2 PK WND
                 33026/2303 SLP141 60002 T00391022 10083 20039 51019 =
2017-11-22 17:51 METAR KBDL 222251Z 32011G17KT 10SM FEW032 FEW065 04/M02 A2994 RMK AO2 SLP139
                 T00441017 =
2017-11-22 16:51 METAR KBDL 222151Z 31009KT 10SM SCT031 BKN070 06/00 A2991 RMK AO2 SLP129
                 T00560000 =
2017-11-22 16:32 METAR KBDL 222132Z COR 32009KT 10SM BKN030 BKN065 06/01 A2991 =
2017-11-22 15:51 METAR KBDL 222051Z 31012G17KT 10SM BKN023 BKN060 06/02 A2989 RMK AO2 SLP122
                 60002 T00610022 53015 =
2017-11-22 14:51 METAR KBDL 221951Z 32014KT 10SM BKN022 OVC050 06/03 A2987 RMK AO2 RAE16 SLP116
                 P0001 T00610033 =
2017-11-22 13:51 METAR KBDL 221851Z 31007KT 9SM -RA SCT020 BKN025 OVC055 08/06 A2985 RMK AO2
                 SLP110 P0001 T00780061 =
2017-11-22 13:33 METAR KBDL 221833Z 32007KT 10SM -RA BKN020 OVC060 08/07 A2986 RMK AO2 P0000
                 T00780067 =

Support USWX by starting your Amazon purchase here.